Goode, Virginia
Current Conditions -  °F | °C
As of 4:54 PM on Saturday 25 Oct 2014 (Local Time) from KLYH Reporting Station
Clear Clear  
Wind Chill: 21°   Ceiling: Unl
Heat Index: 21°   Visibility: 10mi
Dew Point:   Wind: 6mph
Humidity: 38%   Direction: NA
Pressure: 29.88"   Gusts: NA
Location:  37.36°N, 79.39°W
Report Text: KLYH 252054Z VRB05KT 10SM CLR 21/06 A2988 RMK AO2 SLP116 T02060056 56019 $
Loading
Personal Weather Stations






























Interactive Weather Map
Tropical Storm Tracking
New forecast layout! Learn more

10-Day Weather Forecast

Advertisements
Track Severe Weather on mobile